Time;durP1;ratioP1;P1;durP2;ratioP2;P2;SDS_P1;SDS_P2;PMS_P1;PMS_P2;Temp;Humidity;BMP_temperature;BMP_pressure;BME280_temperature;BME280_humidity;BME280_pressure;Samples;Min_cycle;Max_cycle;Signal;HPM_P1;HPM_P2
2021/11/02 00:00:20;;;;;;;1.02;0.70;;;;;;;2.64;100.00;91723.69;2069476;28;20040;-86
2021/11/02 00:01:41;;;;;;;1.58;0.57;;;;;;;2.65;100.00;91725.91;2069045;28;20112;-88
2021/11/02 00:03:02;;;;;;;4.40;0.60;;;;;;;2.70;100.00;91727.34;2073352;28;20060;-87
2021/11/02 00:04:23;;;;;;;3.95;0.60;;;;;;;2.77;100.00;91729.91;2085953;28;20037;-86
2021/11/02 00:05:44;;;;;;;5.28;0.80;;;;;;;2.75;100.00;91729.53;2064099;28;20042;-87
2021/11/02 00:07:05;;;;;;;0.75;0.75;;;;;;;2.68;100.00;91725.13;2067860;28;20034;-87
2021/11/02 00:08:25;;;;;;;0.40;0.40;;;;;;;2.68;100.00;91719.84;2060833;28;20042;-84
2021/11/02 00:09:48;;;;;;;1.42;0.80;;;;;;;2.78;100.00;91732.13;2069353;28;20033;-89
2021/11/02 00:11:09;;;;;;;2.03;0.70;;;;;;;2.68;100.00;91727.75;2052759;28;20058;-89
2021/11/02 00:12:30;;;;;;;1.27;0.65;;;;;;;2.64;100.00;91724.44;2072235;28;20053;-88
2021/11/02 00:13:53;;;;;;;1.23;0.50;;;;;;;2.62;100.00;91721.44;2056111;28;20035;-87
2021/11/02 00:15:21;;;;;;;0.77;0.45;;;;;;;2.60;100.00;91723.00;2072821;28;20033;-89
2021/11/02 00:16:44;;;;;;;1.65;0.80;;;;;;;2.67;100.00;91728.88;2067071;28;20050;-83
2021/11/02 00:18:06;;;;;;;1.95;0.50;;;;;;;2.53;100.00;91727.22;2073616;28;20123;-90
2021/11/02 00:19:28;;;;;;;0.95;0.55;;;;;;;2.53;100.00;91724.56;2070969;28;20722;-86
2021/11/02 00:20:58;;;;;;;3.90;0.60;;;;;;;2.53;100.00;91727.22;2071983;28;20038;-89
2021/11/02 00:22:21;;;;;;;1.87;0.70;;;;;;;2.63;100.00;91727.44;2062488;28;20986;-89
2021/11/02 00:23:42;;;;;;;2.38;0.80;;;;;;;2.66;100.00;91724.03;2077746;28;20451;-87
2021/11/02 00:25:04;;;;;;;0.75;0.52;;;;;;;2.70;100.00;91732.63;2078764;28;20077;-89
2021/11/02 18:06:44;;;;;;;8.30;4.95;;;;;;;3.09;100.00;91794.63;2076855;27;21266;-88
2021/11/02 18:07:45;;;;;;;8.65;6.05;;;;;;;2.97;100.00;91798.56;2070229;28;20038;-88
2021/11/02 18:08:48;;;;;;;8.90;6.43;;;;;;;2.90;100.00;91798.69;2047165;28;20031;-88
2021/11/02 18:09:49;;;;;;;11.70;7.47;;;;;;;2.75;100.00;91804.16;2039470;28;20071;-87
2021/11/02 18:10:51;;;;;;;10.00;7.30;;;;;;;2.74;100.00;91807.94;2047241;28;20025;-89
2021/11/02 18:11:52;;;;;;;12.15;7.63;;;;;;;2.71;100.00;91807.97;2055418;28;20054;-89
2021/11/02 18:12:54;;;;;;;10.43;5.60;;;;;;;2.61;100.00;91811.53;2041231;28;20485;-89
2021/11/02 18:13:55;;;;;;;10.50;5.90;;;;;;;2.58;100.00;91814.94;2047589;28;20019;-89
2021/11/02 18:14:58;;;;;;;5.25;4.53;;;;;;;2.64;100.00;91816.00;2047026;28;20027;-88
2021/11/02 18:16:06;;;;;;;6.13;4.65;;;;;;;2.60;100.00;91821.31;2062936;28;20688;-90
2021/11/02 18:17:08;;;;;;;4.78;3.85;;;;;;;2.56;100.00;91819.88;2065492;28;20837;-89
2021/11/02 18:18:09;;;;;;;5.57;5.00;;;;;;;2.58;100.00;91818.31;2060361;28;20018;-88
2021/11/02 18:19:12;;;;;;;5.85;5.35;;;;;;;2.63;100.00;91817.88;2063372;28;20057;-90
2021/11/02 18:20:14;;;;;;;11.05;10.10;;;;;;;2.60;100.00;91821.31;2063698;28;20029;-89
2021/11/02 18:21:17;;;;;;;6.78;3.75;;;;;;;2.61;100.00;91820.19;2055539;28;20039;-89
2021/11/02 18:22:18;;;;;;;2.38;2.20;;;;;;;2.67;100.00;91823.84;2056647;28;20035;-90
2021/11/02 18:23:20;;;;;;;2.95;1.50;;;;;;;2.63;100.00;91825.78;2060575;28;20105;-88
2021/11/02 18:24:21;;;;;;;1.92;1.83;;;;;;;2.63;100.00;91819.78;2068191;28;20090;-89
2021/11/02 18:25:24;;;;;;;4.78;4.07;;;;;;;2.56;100.00;91825.91;2072423;28;20021;-87
2021/11/02 18:26:25;;;;;;;4.78;4.38;;;;;;;2.41;100.00;91832.47;2064204;28;20026;-88
2021/11/02 18:27:26;;;;;;;4.07;2.83;;;;;;;2.42;100.00;91823.44;2064052;28;20019;-89
2021/11/02 18:28:27;;;;;;;2.90;2.70;;;;;;;2.43;100.00;91823.03;2063935;28;20022;-90
2021/11/02 18:29:30;;;;;;;3.92;3.42;;;;;;;2.38;100.00;91818.22;2056156;28;20574;-90
2021/11/02 18:30:33;;;;;;;2.30;2.20;;;;;;;2.35;100.00;91813.72;2072409;28;20028;-89
2021/11/02 18:31:34;;;;;;;3.17;2.97;;;;;;;2.38;100.00;91820.09;2072078;28;20025;-90
2021/11/02 18:32:36;;;;;;;4.50;4.10;;;;;;;2.35;100.00;91820.88;2064102;28;20482;-90
2021/11/02 18:33:37;;;;;;;4.40;3.80;;;;;;;2.41;100.00;91811.38;2064356;28;20082;-90
2021/11/02 18:34:39;;;;;;;3.88;3.58;;;;;;;2.56;100.00;91810.06;2056120;28;20029;-89
2021/11/02 18:35:40;;;;;;;2.95;2.75;;;;;;;2.53;100.00;91813.50;2048370;28;20027;-90
2021/11/02 18:36:42;;;;;;;2.50;2.30;;;;;;;2.41;100.00;91814.75;2048276;28;20030;-90
2021/11/02 18:37:45;;;;;;;2.28;2.08;;;;;;;2.27;100.00;91812.31;2049924;28;20034;-89
2021/11/02 18:38:46;;;;;;;2.28;2.10;;;;;;;2.18;100.00;91815.41;2048419;28;20027;-89
2021/11/02 18:39:48;;;;;;;1.95;1.85;;;;;;;2.21;100.00;91814.66;2055950;28;20026;-88
2021/11/02 18:40:49;;;;;;;2.20;2.00;;;;;;;2.11;100.00;91814.75;2055769;28;20033;-90
2021/11/02 18:41:51;;;;;;;1.90;1.80;;;;;;;2.06;100.00;91809.91;2048233;28;20031;-89
2021/11/02 18:42:53;;;;;;;2.33;2.17;;;;;;;1.99;100.00;91813.38;2048246;28;20111;-90
2021/11/02 18:43:56;;;;;;;2.25;1.67;;;;;;;1.93;100.00;91807.81;2048449;28;20496;-90
2021/11/02 18:44:57;;;;;;;1.52;1.27;;;;;;;1.92;100.00;91808.94;2052735;28;20038;-90
2021/11/02 18:45:58;;;;;;;1.92;1.67;;;;;;;1.92;100.00;91811.56;2056171;28;20019;-89
2021/11/02 18:47:00;;;;;;;1.90;1.80;;;;;;;1.92;100.00;91819.47;2064303;28;20030;-91
2021/11/02 18:48:02;;;;;;;2.08;1.60;;;;;;;1.90;100.00;91813.84;2064731;28;20038;-90
2021/11/02 18:49:04;;;;;;;1.52;1.30;;;;;;;1.80;100.00;91808.69;2064213;28;20019;-89
2021/11/02 18:50:07;;;;;;;2.17;0.80;;;;;;;1.94;100.00;91816.47;2048443;28;20098;-89
2021/11/02 18:51:08;;;;;;;3.38;1.10;;;;;;;1.75;100.00;91815.13;2050419;28;20035;-89
2021/11/02 18:52:10;;;;;;;1.20;1.10;;;;;;;1.69;100.00;91812.19;2050121;28;20027;-90
2021/11/02 18:53:12;;;;;;;1.20;1.10;;;;;;;1.70;100.00;91812.94;2058001;28;20553;-89
2021/11/02 18:54:14;;;;;;;1.83;1.25;;;;;;;1.75;100.00;91821.16;2053657;28;20031;-90
2021/11/02 18:55:16;;;;;;;2.75;1.50;;;;;;;1.61;100.00;91817.91;2058175;28;20066;-87
2021/11/02 18:56:17;;;;;;;3.30;2.50;;;;;;;1.68;100.00;91820.50;2061792;28;20113;-89
2021/11/02 18:57:18;;;;;;;2.92;2.60;;;;;;;1.67;100.00;91819.00;2050023;28;20035;-89
2021/11/02 18:58:20;;;;;;;2.90;2.63;;;;;;;1.56;100.00;91821.72;2053994;28;20027;-89
2021/11/02 18:59:21;;;;;;;3.38;3.08;;;;;;;1.48;100.00;91822.91;2061631;28;20093;-89
2021/11/02 19:00:22;;;;;;;3.60;3.30;;;;;;;1.51;100.00;91816.88;2054550;28;20019;-89
2021/11/02 19:01:24;;;;;;;4.07;3.78;;;;;;;1.59;100.00;91814.94;2061892;28;20030;-89
2021/11/02 19:02:24;;;;;;;5.03;4.63;;;;;;;1.56;100.00;91816.44;2057647;28;20027;-89
2021/11/02 19:03:26;;;;;;;5.65;5.15;;;;;;;1.58;100.00;91816.03;2057738;28;20026;-90
2021/11/02 19:04:27;;;;;;;5.00;4.60;;;;;;;1.54;100.00;91808.22;2061760;28;20033;-89
2021/11/02 19:05:32;;;;;;;5.45;4.10;;;;;;;1.48;100.00;91807.84;2063287;28;20026;-89
2021/11/02 19:06:33;;;;;;;3.97;3.55;;;;;;;1.60;100.00;91814.53;2056163;28;20027;-90
2021/11/02 19:07:35;;;;;;;3.65;2.20;;;;;;;1.56;100.00;91807.81;2057191;28;20808;-89
2021/11/02 19:08:36;;;;;;;3.83;1.60;;;;;;;1.47;100.00;91809.00;2049662;28;20507;-89
2021/11/02 19:09:37;;;;;;;2.17;1.60;;;;;;;1.42;100.00;91804.16;2049318;28;21385;-89
2021/11/02 19:10:39;;;;;;;1.35;1.25;;;;;;;1.32;100.00;91818.19;2057366;28;20035;-89
2021/11/02 19:11:40;;;;;;;1.23;1.13;;;;;;;1.46;100.00;91812.78;2066034;28;20022;-89
2021/11/02 19:12:41;;;;;;;1.20;1.10;;;;;;;1.38;100.00;91816.59;2065489;28;20030;-89
2021/11/02 19:13:42;;;;;;;1.05;1.05;;;;;;;1.30;100.00;91817.81;2057138;28;20022;-91
2021/11/02 19:14:43;;;;;;;1.08;1.00;;;;;;;1.16;100.00;91823.94;2065963;28;20064;-89
2021/11/02 19:15:46;;;;;;;1.98;1.23;;;;;;;1.19;100.00;91822.41;2057434;28;20026;-89
2021/11/02 19:16:47;;;;;;;3.35;1.20;;;;;;;1.19;100.00;91825.06;2050294;28;20027;-88
2021/11/02 19:17:48;;;;;;;1.98;1.15;;;;;;;1.05;100.00;91820.63;2057427;28;20046;-89
2021/11/02 19:18:49;;;;;;;2.45;1.60;;;;;;;1.12;100.00;91817.94;2064773;28;20494;-90
2021/11/02 19:19:50;;;;;;;1.40;1.30;;;;;;;1.05;100.00;91822.50;2057227;28;20023;-88
2021/11/02 19:20:51;;;;;;;1.70;1.50;;;;;;;1.10;100.00;91811.56;2048663;28;20455;-90
2021/11/02 19:21:52;;;;;;;2.42;2.22;;;;;;;1.21;100.00;91812.97;2064786;28;20065;-90
2021/11/02 19:22:53;;;;;;;2.65;2.00;;;;;;;1.20;100.00;91808.88;2049069;28;20118;-89
2021/11/02 19:23:55;;;;;;;1.58;1.48;;;;;;;1.26;100.00;91817.81;2049288;28;20559;-89
2021/11/02 19:24:56;;;;;;;1.25;1.20;;;;;;;1.26;100.00;91815.19;2057264;28;20023;-90
2021/11/02 19:25:57;;;;;;;3.78;1.70;;;;;;;1.16;100.00;91808.13;2073955;28;20041;-90
2021/11/02 19:26:58;;;;;;;4.95;1.80;;;;;;;1.14;100.00;91805.16;2073771;28;20018;-89
2021/11/02 19:27:59;;;;;;;1.95;1.55;;;;;;;1.20;100.00;91805.50;2065627;28;20760;-90
2021/11/02 19:29:00;;;;;;;5.43;1.80;;;;;;;1.37;100.00;91796.69;2057906;28;20117;-91
2021/11/02 19:30:03;;;;;;;3.25;1.63;;;;;;;1.25;100.00;91800.53;2057660;28;20023;-89
2021/11/02 19:31:04;;;;;;;3.78;1.10;;;;;;;1.30;100.00;91801.25;2065575;28;20030;-90
2021/11/02 19:32:06;;;;;;;1.92;1.08;;;;;;;1.19;100.00;91801.38;2065624;28;20057;-90
2021/11/02 19:33:07;;;;;;;4.35;1.10;;;;;;;1.12;100.00;91802.16;2052226;28;20784;-89
2021/11/02 19:34:08;;;;;;;1.88;1.02;;;;;;;1.09;100.00;91797.66;2061367;28;20030;-90
2021/11/02 19:35:09;;;;;;;1.15;0.80;;;;;;;1.06;100.00;91800.34;2073381;28;20038;-89
2021/11/02 19:36:10;;;;;;;1.92;1.50;;;;;;;0.87;100.00;91798.97;2057794;28;20411;-89
2021/11/02 19:37:11;;;;;;;2.35;2.20;;;;;;;0.93;100.00;91797.44;2049413;28;20054;-90
2021/11/02 19:38:14;;;;;;;6.70;4.95;;;;;;;0.91;100.00;91791.78;2049604;28;20072;-89
2021/11/02 19:39:15;;;;;;;10.48;8.60;;;;;;;0.82;100.00;91807.25;2057761;28;20022;-89
2021/11/02 19:40:16;;;;;;;9.63;7.10;;;;;;;0.86;100.00;91795.59;2065052;28;20535;-89
2021/11/02 19:41:17;;;;;;;7.65;6.75;;;;;;;0.86;100.00;91795.59;2065274;28;20026;-89
2021/11/02 19:42:18;;;;;;;6.35;5.60;;;;;;;0.81;100.00;91790.00;2048812;28;20341;-89
2021/11/02 19:43:19;;;;;;;7.28;5.72;;;;;;;0.91;100.00;91797.06;2048402;29;20031;-89
2021/11/02 19:44:20;;;;;;;7.53;5.93;;;;;;;0.93;100.00;91784.28;2053711;28;20049;-90
2021/11/02 19:45:21;;;;;;;5.80;4.85;;;;;;;0.89;100.00;91792.19;2065529;28;20370;-90
2021/11/02 19:46:22;;;;;;;6.30;5.60;;;;;;;0.89;100.00;91789.56;2065727;28;20022;-90
2021/11/02 19:47:23;;;;;;;6.20;5.60;;;;;;;0.83;100.00;91790.34;2065058;28;20026;-88
2021/11/02 19:48:25;;;;;;;4.05;3.17;;;;;;;0.64;100.00;91781.84;2057349;28;20105;-87
2021/11/02 19:49:27;;;;;;;2.20;2.10;;;;;;;0.86;100.00;91786.94;2049500;28;20031;-89
2021/11/02 19:50:28;;;;;;;2.22;2.13;;;;;;;0.78;100.00;91785.50;2065515;28;20733;-88
2021/11/02 19:51:29;;;;;;;1.85;1.45;;;;;;;0.59;100.00;91792.00;2065222;28;20022;-87
2021/11/02 19:52:30;;;;;;;3.67;2.08;;;;;;;0.60;100.00;91789.00;2056854;28;20074;-88
2021/11/02 19:53:32;;;;;;;4.25;3.85;;;;;;;0.66;100.00;91797.97;2065129;28;20083;-89
2021/11/02 19:54:34;;;;;;;6.40;5.80;;;;;;;0.72;100.00;91796.44;2065166;28;20471;-89
2021/11/02 19:55:36;;;;;;;9.00;7.75;;;;;;;0.77;100.00;91794.53;2065412;28;20030;-89
2021/11/02 19:56:37;;;;;;;7.50;6.72;;;;;;;0.93;100.00;91789.53;2073666;28;20084;-90
2021/11/02 19:57:39;;;;;;;6.80;5.18;;;;;;;0.90;100.00;91793.69;2065955;28;20126;-91
2021/11/02 19:58:47;;;;;;;5.93;3.67;;;;;;;0.93;100.00;91792.16;2050248;28;20027;-89
2021/11/02 19:59:48;;;;;;;3.17;2.60;;;;;;;0.79;100.00;91793.03;2058110;28;20023;-91
2021/11/02 20:00:50;;;;;;;2.50;2.30;;;;;;;0.70;100.00;91790.06;2049843;28;20039;-91
2021/11/02 20:01:53;;;;;;;2.67;2.47;;;;;;;0.85;100.00;91796.72;2049571;28;20133;-89
2021/11/02 20:02:55;;;;;;;2.67;1.58;;;;;;;0.82;100.00;91796.75;2051245;28;20420;-90
2021/11/02 20:03:55;;;;;;;1.60;1.40;;;;;;;0.84;100.00;91789.22;2057457;28;20165;-90
2021/11/02 20:04:56;;;;;;;1.55;1.17;;;;;;;0.81;100.00;91788.09;2057700;28;20459;-89
2021/11/02 20:06:01;;;;;;;1.20;1.10;;;;;;;0.69;100.00;91788.56;2064430;28;20081;-90
2021/11/02 20:07:09;;;;;;;2.25;1.20;;;;;;;0.65;100.00;91793.09;2049861;28;20516;-90
2021/11/02 20:08:37;;;;;;;1.52;1.00;;;;;;;0.62;100.00;91786.75;2049142;28;20059;-89
2021/11/02 20:09:41;;;;;;;1.02;0.93;;;;;;;0.42;100.00;91793.59;2046946;28;20045;-90
2021/11/02 20:10:48;;;;;;;2.40;0.75;;;;;;;0.47;100.00;91793.94;2048591;28;20524;-90
2021/11/02 20:11:51;;;;;;;1.73;0.70;;;;;;;0.50;100.00;91801.06;2050739;28;20047;-89
2021/11/02 20:13:05;;;;;;;2.38;1.08;;;;;;;0.46;100.00;91802.22;2057064;28;20082;-91
2021/11/02 20:14:06;;;;;;;0.93;0.90;;;;;;;0.48;100.00;91805.97;2048943;28;20042;-90
2021/11/02 20:15:08;;;;;;;1.88;1.77;;;;;;;0.49;100.00;91801.47;2041677;28;20032;-90
2021/11/02 20:16:11;;;;;;;1.65;1.38;;;;;;;0.50;100.00;91805.59;2048250;28;20038;-91
2021/11/02 20:17:12;;;;;;;1.65;1.55;;;;;;;0.52;100.00;91808.56;2041931;28;20027;-90
2021/11/02 20:18:23;;;;;;;2.53;1.77;;;;;;;0.60;100.00;91814.53;2041464;28;20031;-92
2021/11/02 20:19:31;;;;;;;3.90;1.50;;;;;;;0.63;100.00;91813.78;2043934;28;20032;-90
2021/11/02 20:20:33;;;;;;;1.48;1.15;;;;;;;0.66;100.00;91813.75;2053533;28;20166;-91
2021/11/02 20:21:34;;;;;;;0.80;0.80;;;;;;;0.69;100.00;91810.34;2061149;28;20117;-89
2021/11/02 20:22:36;;;;;;;0.95;0.85;;;;;;;0.66;100.00;91811.13;2064883;28;20546;-91
2021/11/02 20:23:37;;;;;;;1.35;1.00;;;;;;;0.68;100.00;91811.47;2065202;28;20050;-89
2021/11/02 20:24:40;;;;;;;0.98;0.80;;;;;;;0.62;100.00;91810.41;2049086;28;20043;-91
2021/11/02 20:25:43;;;;;;;1.17;1.08;;;;;;;0.63;100.00;91809.25;2049799;28;20054;-90
2021/11/02 20:26:44;;;;;;;1.17;1.05;;;;;;;0.55;100.00;91812.31;2065332;28;20026;-90
2021/11/02 20:27:48;;;;;;;1.73;1.30;;;;;;;0.59;100.00;91807.78;2056859;28;20026;-90
2021/11/02 20:28:52;;;;;;;2.85;1.20;;;;;;;0.73;100.00;91812.97;2049625;28;20130;-91
2021/11/02 20:29:54;;;;;;;2.22;1.67;;;;;;;0.69;100.00;91805.09;2049151;28;20706;-90
2021/11/02 20:30:56;;;;;;;1.80;1.70;;;;;;;0.67;100.00;91801.34;2048707;28;20039;-92
2021/11/02 20:31:59;;;;;;;1.75;1.65;;;;;;;0.65;100.00;91808.88;2052906;28;20022;-90
2021/11/02 20:33:00;;;;;;;2.78;1.70;;;;;;;0.71;100.00;91802.09;2054949;28;20078;-92
2021/11/02 20:34:01;;;;;;;2.28;1.80;;;;;;;0.67;100.00;91796.09;2049193;28;20050;-90
2021/11/02 20:35:03;;;;;;;4.13;2.10;;;;;;;0.68;100.00;91802.84;2064913;28;20026;-88
2021/11/02 20:36:07;;;;;;;3.63;2.92;;;;;;;0.80;100.00;91809.53;2065163;28;20023;-90
2021/11/02 20:37:14;;;;;;;3.25;2.35;;;;;;;0.78;100.00;91798.66;2064922;28;20680;-90
2021/11/02 20:38:22;;;;;;;4.00;2.28;;;;;;;0.90;100.00;91803.47;2060141;28;20014;-90
2021/11/02 20:39:25;;;;;;;2.97;2.67;;;;;;;0.84;100.00;91811.00;2057058;28;20066;-90
2021/11/02 20:40:46;;;;;;;3.85;2.50;;;;;;;0.85;100.00;91801.25;2049131;28;20023;-90
2021/11/02 20:41:48;;;;;;;3.88;3.08;;;;;;;0.81;100.00;91803.88;2051621;28;20134;-90
2021/11/02 20:42:59;;;;;;;2.53;2.30;;;;;;;0.85;100.00;91803.88;2048844;28;20036;-91
2021/11/02 20:44:08;;;;;;;4.03;3.50;;;;;;;0.91;100.00;91804.94;2049696;28;20026;-90
2021/11/02 20:45:10;;;;;;;4.05;3.17;;;;;;;0.88;100.00;91808.34;2043215;28;20114;-90
2021/11/02 20:46:16;;;;;;;3.35;3.05;;;;;;;0.90;100.00;91801.56;2049132;28;20034;-89
2021/11/02 20:47:18;;;;;;;3.45;2.92;;;;;;;0.82;100.00;91800.13;2057584;28;20022;-91
2021/11/02 20:48:32;;;;;;;4.20;3.50;;;;;;;0.74;100.00;91799.41;2057759;28;20019;-89
2021/11/02 20:49:36;;;;;;;5.38;3.35;;;;;;;0.65;100.00;91801.72;2051502;28;20035;-90
2021/11/02 20:50:37;;;;;;;5.60;3.00;;;;;;;0.69;100.00;91804.34;2057870;28;20400;-90
2021/11/02 20:51:38;;;;;;;3.47;3.00;;;;;;;0.69;100.00;91802.44;2069563;28;20096;-90
2021/11/02 20:52:39;;;;;;;5.05;3.00;;;;;;;0.62;100.00;91797.25;2064676;28;20142;-92
2021/11/02 20:53:40;;;;;;;4.05;3.10;;;;;;;0.61;100.00;91803.63;2057101;28;20120;-90
2021/11/02 20:54:43;;;;;;;6.00;3.20;;;;;;;0.62;100.00;91796.50;2064998;28;20542;-90
2021/11/02 20:55:44;;;;;;;5.35;3.50;;;;;;;0.57;100.00;91799.53;2064687;28;20116;-90
2021/11/02 20:56:45;;;;;;;3.63;3.05;;;;;;;0.57;100.00;91792.41;2067478;28;20102;-89
2021/11/02 20:57:48;;;;;;;3.42;3.13;;;;;;;0.60;100.00;91793.50;2064567;28;20157;-90
2021/11/02 20:58:50;;;;;;;4.47;2.90;;;;;;;0.58;100.00;91795.78;2064576;28;20113;-90
2021/11/02 20:59:51;;;;;;;5.30;3.40;;;;;;;0.56;100.00;91805.91;2062500;28;20024;-90
2021/11/02 21:00:52;;;;;;;3.90;3.47;;;;;;;0.49;100.00;91796.22;2065214;28;20022;-89
2021/11/02 21:01:55;;;;;;;5.07;3.78;;;;;;;0.53;100.00;91798.78;2056656;28;20034;-89
2021/11/02 21:02:57;;;;;;;4.68;3.47;;;;;;;0.56;100.00;91808.56;2048545;28;20027;-88
2021/11/02 21:03:58;;;;;;;4.57;3.67;;;;;;;0.72;100.00;91806.22;2048783;28;20034;-90
2021/11/02 21:05:01;;;;;;;5.80;3.70;;;;;;;0.78;100.00;91803.91;2041150;28;20553;-90
2021/11/02 21:06:04;;;;;;;5.45;3.58;;;;;;;0.69;100.00;91802.44;2049258;28;20118;-89
2021/11/02 21:07:06;;;;;;;3.85;3.50;;;;;;;0.71;100.00;91807.34;2056979;28;20078;-89
2021/11/02 21:08:14;;;;;;;3.97;3.17;;;;;;;0.76;100.00;91806.94;2064739;28;20088;-90
2021/11/02 21:09:18;;;;;;;4.35;3.22;;;;;;;0.65;100.00;91806.25;2049835;28;20180;-90
2021/11/02 21:10:20;;;;;;;4.80;3.20;;;;;;;0.67;100.00;91804.00;2049129;28;20126;-90
2021/11/02 21:11:25;;;;;;;4.40;3.15;;;;;;;0.66;100.00;91808.50;2041470;29;20619;-90
2021/11/02 21:12:27;;;;;;;4.95;3.40;;;;;;;0.77;100.00;91808.44;2050404;28;20027;-89
2021/11/02 21:13:31;;;;;;;4.93;2.88;;;;;;;0.72;100.00;91800.94;2059122;28;20661;-90
2021/11/02 21:14:32;;;;;;;5.15;3.28;;;;;;;0.79;100.00;91806.16;2056761;28;20387;-88
2021/11/02 21:15:36;;;;;;;7.28;3.03;;;;;;;0.77;100.00;91797.91;2056667;28;20022;-89
2021/11/02 21:16:41;;;;;;;5.85;3.10;;;;;;;0.66;100.00;91802.47;2049046;28;20030;-90
2021/11/02 21:17:42;;;;;;;3.35;2.60;;;;;;;0.71;100.00;91799.47;2049721;28;20373;-90
2021/11/02 21:18:55;;;;;;;3.53;3.00;;;;;;;0.80;100.00;91799.03;2048467;28;20026;-90
2021/11/02 21:20:03;;;;;;;3.00;2.70;;;;;;;0.66;100.00;91799.84;2042139;29;20106;-90
2021/11/02 21:21:07;;;;;;;4.35;3.03;;;;;;;0.69;100.00;91801.72;2041852;28;20030;-90
2021/11/02 21:22:08;;;;;;;3.17;2.60;;;;;;;0.59;100.00;91794.66;2041141;29;20046;-90
2021/11/02 21:23:09;;;;;;;3.15;2.70;;;;;;;0.62;100.00;91794.63;2032875;29;20066;-90
2021/11/02 21:24:11;;;;;;;4.25;2.75;;;;;;;0.57;100.00;91792.41;2048523;29;20414;-90
2021/11/02 21:25:12;;;;;;;4.03;3.15;;;;;;;0.52;100.00;91786.78;2048713;29;20376;-91
2021/11/02 21:26:13;;;;;;;4.78;3.22;;;;;;;0.45;100.00;91785.72;2040631;28;20059;-91
2021/11/02 21:27:15;;;;;;;5.00;2.95;;;;;;;0.43;100.00;91785.31;2056628;28;20026;-88
2021/11/02 21:28:17;;;;;;;3.38;3.08;;;;;;;0.40;100.00;91778.22;2052559;28;20034;-88
2021/11/02 21:29:20;;;;;;;4.10;3.05;;;;;;;0.47;100.00;91782.69;2041247;28;20067;-90
2021/11/02 21:30:26;;;;;;;4.57;2.95;;;;;;;0.31;100.00;91785.03;2041182;28;20027;-89
2021/11/02 21:31:31;;;;;;;3.67;2.63;;;;;;;0.36;100.00;91782.00;2041398;29;20110;-88
2021/11/02 21:32:33;;;;;;;3.15;2.90;;;;;;;0.35;100.00;91780.50;2033680;29;20024;-89
2021/11/02 21:33:46;;;;;;;4.95;3.05;;;;;;;0.32;100.00;91778.66;2041139;28;20413;-90
2021/11/02 21:34:50;;;;;;;2.95;2.65;;;;;;;0.31;100.00;91777.91;2049952;28;20027;-91
2021/11/02 21:35:51;;;;;;;3.40;3.10;;;;;;;0.27;100.00;91779.06;2041011;29;20416;-90
2021/11/02 21:36:52;;;;;;;7.80;3.20;;;;;;;0.31;100.00;91785.78;2045336;28;20031;-89
2021/11/02 21:37:53;;;;;;;4.10;3.20;;;;;;;0.42;100.00;91783.09;2056590;28;20049;-89
2021/11/02 21:38:54;;;;;;;3.05;2.78;;;;;;;0.37;100.00;91786.88;2048715;28;20020;-89
2021/11/02 21:39:57;;;;;;;5.28;2.97;;;;;;;0.31;100.00;91780.53;2045505;29;20027;-90
2021/11/02 21:41:16;;;;;;;6.80;2.97;;;;;;;0.35;100.00;91780.50;2033335;29;20035;-90
2021/11/02 21:42:36;;;;;;;3.17;2.50;;;;;;;0.35;100.00;91783.91;2046565;28;20027;-90
2021/11/02 21:43:42;;;;;;;5.38;2.92;;;;;;;0.45;100.00;91783.09;2051213;28;20029;-89
2021/11/02 21:44:47;;;;;;;4.70;2.65;;;;;;;0.36;100.00;91780.13;2051946;28;20030;-91
2021/11/02 21:45:50;;;;;;;2.88;2.58;;;;;;;0.31;100.00;91783.16;2034038;29;20102;-89
2021/11/02 21:47:04;;;;;;;5.70;3.17;;;;;;;0.29;100.00;91777.53;2045441;28;20135;-90
2021/11/02 21:48:11;;;;;;;3.78;2.90;;;;;;;0.33;100.00;91777.50;2042241;29;20031;-88
2021/11/02 21:49:42;;;;;;;5.25;2.92;;;;;;;0.29;100.00;91767.03;2049456;28;20031;-89
2021/11/02 21:50:47;;;;;;;2.72;2.53;;;;;;;0.24;100.00;91777.94;2051978;28;20072;-90
2021/11/02 21:51:49;;;;;;;3.45;3.15;;;;;;;0.24;100.00;91768.16;2040677;29;20074;-88
2021/11/02 21:52:54;;;;;;;3.83;3.28;;;;;;;0.29;100.00;91774.16;2048758;28;20167;-87
2021/11/02 21:53:58;;;;;;;4.47;3.15;;;;;;;0.43;100.00;91772.19;2057267;28;20093;-90
2021/11/02 21:55:06;;;;;;;4.55;3.25;;;;;;;0.27;100.00;91774.56;2058331;28;20027;-90
2021/11/02 21:56:10;;;;;;;4.10;2.83;;;;;;;0.19;100.00;91771.22;2057206;28;20512;-89
2021/11/02 21:57:15;;;;;;;5.93;2.95;;;;;;;0.10;100.00;91764.88;2056447;28;20031;-90
2021/11/02 21:58:40;;;;;;;4.35;2.88;;;;;;;0.19;100.00;91762.56;2048936;28;20432;-88
2021/11/02 21:59:48;;;;;;;3.33;2.50;;;;;;;0.20;100.00;91756.94;2043785;29;20027;-89
2021/11/02 22:00:51;;;;;;;3.28;2.55;;;;;;;0.24;100.00;91754.28;2042512;28;20046;-88
2021/11/02 22:01:57;;;;;;;3.50;2.90;;;;;;;0.13;100.00;91756.22;2041127;28;20023;-90
2021/11/02 22:03:01;;;;;;;3.42;2.92;;;;;;;0.34;100.00;91758.72;2049254;28;20039;-89
2021/11/02 22:04:03;;;;;;;4.15;2.60;;;;;;;0.39;100.00;91757.56;2056468;28;20039;-87
2021/11/02 22:05:05;;;;;;;3.20;2.80;;;;;;;0.28;100.00;91755.03;2047576;28;20106;-89
2021/11/02 22:06:06;;;;;;;4.30;2.75;;;;;;;0.30;100.00;91752.00;2056502;28;20034;-89
2021/11/02 22:07:07;;;;;;;4.28;3.00;;;;;;;0.18;100.00;91751.31;2059524;28;20023;-88
2021/11/02 22:08:08;;;;;;;2.80;2.50;;;;;;;0.21;100.00;91744.53;2056474;28;20030;-90
2021/11/02 22:09:09;;;;;;;5.57;2.75;;;;;;;0.23;100.00;91753.53;2056454;28;20135;-90
2021/11/02 22:10:11;;;;;;;4.72;3.17;;;;;;;0.36;100.00;91753.09;2056466;28;20757;-89
2021/11/02 22:11:12;;;;;;;3.88;2.80;;;;;;;0.28;100.00;91746.38;2049021;28;20462;-89
2021/11/02 22:12:13;;;;;;;4.65;3.00;;;;;;;0.25;100.00;91750.53;2051578;28;20033;-89
2021/11/02 22:13:15;;;;;;;3.45;2.85;;;;;;;0.12;100.00;91752.09;2048118;28;20039;-90
2021/11/02 22:14:16;;;;;;;3.28;2.83;;;;;;;0.24;100.00;91749.03;2058058;28;20467;-89
2021/11/02 22:15:18;;;;;;;3.30;2.60;;;;;;;0.11;100.00;91755.84;2059691;28;20034;-89
2021/11/02 22:16:19;;;;;;;5.90;3.08;;;;;;;0.04;100.00;91746.13;2072252;28;20034;-90
2021/11/02 22:17:20;;;;;;;3.28;2.70;;;;;;;0.14;100.00;91749.84;2071971;28;20390;-90
2021/11/02 22:18:21;;;;;;;2.95;2.58;;;;;;;0.02;100.00;91745.03;2072057;28;20069;-91
2021/11/02 22:19:22;;;;;;;3.65;2.90;;;;;;;0.02;100.00;91742.41;2069289;28;20026;-87
2021/11/02 22:20:23;;;;;;;3.20;2.55;;;;;;;0.09;100.00;91742.34;2067537;28;20028;-89
2021/11/02 22:21:24;;;;;;;3.70;2.95;;;;;;;0.12;100.00;91738.97;2062408;28;20675;-89
2021/11/02 22:22:28;;;;;;;3.28;2.55;;;;;;;0.09;100.00;91747.59;2061960;28;20558;-89
2021/11/02 22:23:33;;;;;;;6.28;2.70;;;;;;;0.09;100.00;91734.47;2057453;28;20025;-89
2021/11/02 22:24:34;;;;;;;4.93;3.00;;;;;;;-0.04;100.00;91732.28;2065096;28;20726;-90
2021/11/02 22:25:35;;;;;;;3.25;2.47;;;;;;;0.00;100.00;91737.53;2066289;28;20491;-90
2021/11/02 22:26:37;;;;;;;4.65;2.83;;;;;;;0.00;100.00;91729.66;2057784;28;20516;-89
2021/11/02 22:27:40;;;;;;;3.15;2.60;;;;;;;0.13;100.00;91724.69;2065936;28;20049;-90
2021/11/02 22:28:41;;;;;;;2.83;2.53;;;;;;;0.19;100.00;91723.91;2073993;28;20025;-90
2021/11/02 22:29:43;;;;;;;2.67;2.47;;;;;;;0.25;100.00;91730.25;2074175;28;20029;-91
2021/11/02 22:30:44;;;;;;;4.97;2.38;;;;;;;0.22;100.00;91728.41;2065729;28;20502;-89
2021/11/02 22:31:46;;;;;;;3.28;2.50;;;;;;;0.16;100.00;91727.31;2054174;28;20027;-88
2021/11/02 22:32:47;;;;;;;3.58;2.67;;;;;;;0.10;100.00;91731.47;2058220;28;20053;-89
2021/11/02 22:33:50;;;;;;;5.93;3.20;;;;;;;0.13;100.00;91724.69;2066237;28;20030;-88
2021/11/02 22:34:54;;;;;;;3.22;2.75;;;;;;;0.21;100.00;91715.63;2066152;28;20096;-90
2021/11/02 22:35:57;;;;;;;2.50;2.30;;;;;;;0.27;100.00;91719.38;2051018;28;20113;-90
2021/11/02 22:36:58;;;;;;;3.80;2.70;;;;;;;0.25;100.00;91717.09;2050580;28;20038;-90
2021/11/02 22:37:59;;;;;;;3.92;3.05;;;;;;;0.17;100.00;91709.66;2050229;28;20094;-89
2021/11/02 22:39:00;;;;;;;3.05;2.50;;;;;;;0.14;100.00;91705.94;2050295;28;20035;-91
2021/11/02 22:40:03;;;;;;;4.15;2.95;;;;;;;0.21;100.00;91699.88;2072508;28;20026;-88
2021/11/02 22:41:04;;;;;;;3.42;2.60;;;;;;;0.19;100.00;91697.63;2065979;28;20026;-89
2021/11/02 22:42:06;;;;;;;2.78;2.33;;;;;;;0.23;100.00;91695.75;2050313;28;20019;-90
2021/11/02 22:43:08;;;;;;;3.25;2.40;;;;;;;0.28;100.00;91699.09;2050280;28;20027;-88